sensor_id;sensor_type;location;lat;lon;timestamp;P1;durP1;ratioP1;P2;durP2;ratioP2
66272;SDS011;58450;52.150;4.466;2022-08-18T00:00:30;4.75;;;3.72;;
66272;SDS011;58450;52.150;4.466;2022-08-18T00:02:59;5.60;;;3.60;;
66272;SDS011;58450;52.150;4.466;2022-08-18T00:05:33;5.57;;;3.50;;
66272;SDS011;58450;52.150;4.466;2022-08-18T00:08:01;6.20;;;3.92;;
66272;SDS011;58450;52.150;4.466;2022-08-18T00:10:30;6.57;;;3.63;;
66272;SDS011;58450;52.150;4.466;2022-08-18T00:12:58;4.53;;;3.33;;
66272;SDS011;58450;52.150;4.466;2022-08-18T00:15:26;6.53;;;3.83;;
66272;SDS011;58450;52.150;4.466;2022-08-18T00:17:55;5.60;;;3.60;;
66272;SDS011;58450;52.150;4.466;2022-08-18T00:20:23;6.70;;;3.70;;
66272;SDS011;58450;52.150;4.466;2022-08-18T00:22:51;5.93;;;3.70;;
66272;SDS011;58450;52.150;4.466;2022-08-18T00:25:21;5.45;;;3.70;;
66272;SDS011;58450;52.150;4.466;2022-08-18T00:27:50;4.65;;;3.63;;
66272;SDS011;58450;52.150;4.466;2022-08-18T00:30:18;6.10;;;3.72;;
66272;SDS011;58450;52.150;4.466;2022-08-18T00:32:48;5.07;;;3.85;;
66272;SDS011;58450;52.150;4.466;2022-08-18T00:35:20;5.43;;;3.47;;
66272;SDS011;58450;52.150;4.466;2022-08-18T00:37:52;5.97;;;3.70;;
66272;SDS011;58450;52.150;4.466;2022-08-18T00:40:23;7.40;;;4.20;;
66272;SDS011;58450;52.150;4.466;2022-08-18T00:42:55;7.35;;;3.83;;
66272;SDS011;58450;52.150;4.466;2022-08-18T00:45:27;6.55;;;3.70;;
66272;SDS011;58450;52.150;4.466;2022-08-18T00:47:59;6.57;;;3.88;;
66272;SDS011;58450;52.150;4.466;2022-08-18T00:50:29;6.18;;;4.13;;
66272;SDS011;58450;52.150;4.466;2022-08-18T00:55:32;5.00;;;3.50;;
66272;SDS011;58450;52.150;4.466;2022-08-18T00:58:02;5.93;;;3.60;;
66272;SDS011;58450;52.150;4.466;2022-08-18T01:00:35;6.00;;;3.90;;
66272;SDS011;58450;52.150;4.466;2022-08-18T01:03:04;6.43;;;4.05;;
66272;SDS011;58450;52.150;4.466;2022-08-18T01:05:46;6.75;;;4.03;;
66272;SDS011;58450;52.150;4.466;2022-08-18T01:08:21;7.10;;;4.53;;
66272;SDS011;58450;52.150;4.466;2022-08-18T01:10:51;6.63;;;4.18;;
66272;SDS011;58450;52.150;4.466;2022-08-18T01:13:20;7.50;;;4.28;;
66272;SDS011;58450;52.150;4.466;2022-08-18T01:18:22;5.45;;;3.67;;
66272;SDS011;58450;52.150;4.466;2022-08-18T01:21:10;5.35;;;3.65;;
66272;SDS011;58450;52.150;4.466;2022-08-18T01:24:03;6.32;;;4.03;;
66272;SDS011;58450;52.150;4.466;2022-08-18T01:26:37;8.13;;;3.80;;
66272;SDS011;58450;52.150;4.466;2022-08-18T01:29:15;6.47;;;3.70;;
66272;SDS011;58450;52.150;4.466;2022-08-18T01:31:47;4.35;;;3.55;;
66272;SDS011;58450;52.150;4.466;2022-08-18T01:34:20;6.32;;;3.80;;
66272;SDS011;58450;52.150;4.466;2022-08-18T01:36:49;5.43;;;3.70;;
66272;SDS011;58450;52.150;4.466;2022-08-18T01:39:21;7.82;;;4.03;;
66272;SDS011;58450;52.150;4.466;2022-08-18T01:41:49;6.20;;;3.97;;
66272;SDS011;58450;52.150;4.466;2022-08-18T01:44:17;5.00;;;3.67;;
66272;SDS011;58450;52.150;4.466;2022-08-18T01:46:45;6.68;;;3.88;;
66272;SDS011;58450;52.150;4.466;2022-08-18T01:49:12;6.97;;;3.90;;
66272;SDS011;58450;52.150;4.466;2022-08-18T01:51:39;5.90;;;4.00;;
66272;SDS011;58450;52.150;4.466;2022-08-18T01:54:08;5.35;;;4.00;;
66272;SDS011;58450;52.150;4.466;2022-08-18T01:56:40;5.20;;;3.70;;
66272;SDS011;58450;52.150;4.466;2022-08-18T01:59:09;7.60;;;3.83;;
66272;SDS011;58450;52.150;4.466;2022-08-18T02:01:39;5.95;;;4.10;;
66272;SDS011;58450;52.150;4.466;2022-08-18T02:04:10;6.25;;;3.88;;
66272;SDS011;58450;52.150;4.466;2022-08-18T02:06:38;8.10;;;4.05;;
66272;SDS011;58450;52.150;4.466;2022-08-18T02:09:06;5.97;;;4.05;;
66272;SDS011;58450;52.150;4.466;2022-08-18T02:11:34;5.78;;;3.97;;
66272;SDS011;58450;52.150;4.466;2022-08-18T02:14:03;5.95;;;4.13;;
66272;SDS011;58450;52.150;4.466;2022-08-18T02:16:30;6.13;;;3.88;;
66272;SDS011;58450;52.150;4.466;2022-08-18T02:18:58;6.60;;;4.20;;
66272;SDS011;58450;52.150;4.466;2022-08-18T02:21:25;5.50;;;4.07;;
66272;SDS011;58450;52.150;4.466;2022-08-18T02:23:53;6.97;;;4.20;;
66272;SDS011;58450;52.150;4.466;2022-08-18T02:26:20;5.22;;;3.97;;
66272;SDS011;58450;52.150;4.466;2022-08-18T02:28:49;6.43;;;4.10;;
66272;SDS011;58450;52.150;4.466;2022-08-18T02:31:19;8.65;;;5.00;;
66272;SDS011;58450;52.150;4.466;2022-08-18T02:33:49;6.30;;;4.25;;
66272;SDS011;58450;52.150;4.466;2022-08-18T02:36:18;8.48;;;5.13;;
66272;SDS011;58450;52.150;4.466;2022-08-18T02:38:46;7.53;;;4.70;;
66272;SDS011;58450;52.150;4.466;2022-08-18T02:41:13;6.47;;;4.65;;
66272;SDS011;58450;52.150;4.466;2022-08-18T02:43:41;6.32;;;4.57;;
66272;SDS011;58450;52.150;4.466;2022-08-18T02:46:09;7.38;;;4.65;;
66272;SDS011;58450;52.150;4.466;2022-08-18T02:48:38;5.18;;;4.03;;
66272;SDS011;58450;52.150;4.466;2022-08-18T02:51:06;7.60;;;4.78;;
66272;SDS011;58450;52.150;4.466;2022-08-18T02:53:37;5.68;;;4.25;;
66272;SDS011;58450;52.150;4.466;2022-08-18T02:56:07;5.78;;;4.22;;
66272;SDS011;58450;52.150;4.466;2022-08-18T02:58:46;7.03;;;4.70;;
66272;SDS011;58450;52.150;4.466;2022-08-18T03:01:18;6.60;;;4.53;;
66272;SDS011;58450;52.150;4.466;2022-08-18T03:03:47;7.80;;;4.57;;
66272;SDS011;58450;52.150;4.466;2022-08-18T03:06:16;6.90;;;4.60;;
66272;SDS011;58450;52.150;4.466;2022-08-18T03:08:46;5.63;;;3.90;;
66272;SDS011;58450;52.150;4.466;2022-08-18T03:11:15;5.40;;;4.15;;
66272;SDS011;58450;52.150;4.466;2022-08-18T03:13:45;5.50;;;4.10;;
66272;SDS011;58450;52.150;4.466;2022-08-18T03:16:12;5.55;;;4.10;;
66272;SDS011;58450;52.150;4.466;2022-08-18T03:18:40;6.15;;;4.35;;
66272;SDS011;58450;52.150;4.466;2022-08-18T03:21:12;5.00;;;3.92;;
66272;SDS011;58450;52.150;4.466;2022-08-18T03:23:43;5.55;;;3.90;;
66272;SDS011;58450;52.150;4.466;2022-08-18T03:26:11;6.65;;;4.40;;
66272;SDS011;58450;52.150;4.466;2022-08-18T03:28:42;7.38;;;4.82;;
66272;SDS011;58450;52.150;4.466;2022-08-18T03:31:13;5.50;;;4.60;;
66272;SDS011;58450;52.150;4.466;2022-08-18T03:33:43;6.80;;;4.90;;
66272;SDS011;58450;52.150;4.466;2022-08-18T03:36:14;6.32;;;4.70;;
66272;SDS011;58450;52.150;4.466;2022-08-18T03:38:45;6.05;;;4.32;;
66272;SDS011;58450;52.150;4.466;2022-08-18T03:41:15;6.13;;;4.45;;
66272;SDS011;58450;52.150;4.466;2022-08-18T03:43:45;5.38;;;4.35;;
66272;SDS011;58450;52.150;4.466;2022-08-18T03:46:13;6.85;;;4.90;;
66272;SDS011;58450;52.150;4.466;2022-08-18T03:48:43;5.60;;;4.30;;
66272;SDS011;58450;52.150;4.466;2022-08-18T03:51:14;7.28;;;4.45;;
66272;SDS011;58450;52.150;4.466;2022-08-18T03:53:47;5.53;;;4.30;;
66272;SDS011;58450;52.150;4.466;2022-08-18T03:56:16;8.20;;;4.57;;
66272;SDS011;58450;52.150;4.466;2022-08-18T03:58:47;5.47;;;4.45;;
66272;SDS011;58450;52.150;4.466;2022-08-18T04:01:17;6.55;;;4.78;;
66272;SDS011;58450;52.150;4.466;2022-08-18T04:03:51;6.75;;;5.45;;
66272;SDS011;58450;52.150;4.466;2022-08-18T04:06:24;6.90;;;4.85;;
66272;SDS011;58450;52.150;4.466;2022-08-18T04:08:54;5.80;;;4.80;;
66272;SDS011;58450;52.150;4.466;2022-08-18T04:11:26;6.13;;;4.60;;
66272;SDS011;58450;52.150;4.466;2022-08-18T04:13:54;7.68;;;4.80;;
66272;SDS011;58450;52.150;4.466;2022-08-18T04:16:23;5.20;;;4.35;;
66272;SDS011;58450;52.150;4.466;2022-08-18T04:18:51;6.05;;;4.50;;
66272;SDS011;58450;52.150;4.466;2022-08-18T04:21:18;6.53;;;4.93;;
66272;SDS011;58450;52.150;4.466;2022-08-18T04:23:47;6.20;;;4.68;;
66272;SDS011;58450;52.150;4.466;2022-08-18T04:26:14;6.88;;;5.18;;
66272;SDS011;58450;52.150;4.466;2022-08-18T04:28:43;6.38;;;4.57;;
66272;SDS011;58450;52.150;4.466;2022-08-18T04:31:11;6.65;;;4.63;;
66272;SDS011;58450;52.150;4.466;2022-08-18T04:33:42;5.38;;;4.43;;
66272;SDS011;58450;52.150;4.466;2022-08-18T04:36:11;5.53;;;4.80;;
66272;SDS011;58450;52.150;4.466;2022-08-18T04:38:41;6.20;;;4.72;;
66272;SDS011;58450;52.150;4.466;2022-08-18T04:41:11;7.25;;;5.38;;
66272;SDS011;58450;52.150;4.466;2022-08-18T04:43:39;6.50;;;5.10;;
66272;SDS011;58450;52.150;4.466;2022-08-18T04:46:07;6.50;;;5.22;;
66272;SDS011;58450;52.150;4.466;2022-08-18T04:48:36;6.95;;;5.30;;
66272;SDS011;58450;52.150;4.466;2022-08-18T04:51:08;7.65;;;5.30;;
66272;SDS011;58450;52.150;4.466;2022-08-18T04:53:38;7.78;;;5.13;;
66272;SDS011;58450;52.150;4.466;2022-08-18T04:56:14;6.07;;;4.40;;
66272;SDS011;58450;52.150;4.466;2022-08-18T04:58:51;6.22;;;4.50;;
66272;SDS011;58450;52.150;4.466;2022-08-18T05:01:22;6.88;;;5.10;;
66272;SDS011;58450;52.150;4.466;2022-08-18T05:03:53;5.38;;;4.35;;
66272;SDS011;58450;52.150;4.466;2022-08-18T05:06:24;7.63;;;4.68;;
66272;SDS011;58450;52.150;4.466;2022-08-18T05:08:55;6.40;;;5.00;;
66272;SDS011;58450;52.150;4.466;2022-08-18T05:11:26;5.80;;;4.53;;
66272;SDS011;58450;52.150;4.466;2022-08-18T05:13:58;5.32;;;4.20;;
66272;SDS011;58450;52.150;4.466;2022-08-18T05:16:26;6.55;;;4.32;;
66272;SDS011;58450;52.150;4.466;2022-08-18T05:19:01;6.20;;;4.50;;
66272;SDS011;58450;52.150;4.466;2022-08-18T05:21:29;6.03;;;4.60;;
66272;SDS011;58450;52.150;4.466;2022-08-18T05:23:58;6.15;;;4.43;;
66272;SDS011;58450;52.150;4.466;2022-08-18T05:26:28;6.65;;;4.93;;
66272;SDS011;58450;52.150;4.466;2022-08-18T05:28:56;5.60;;;4.28;;
66272;SDS011;58450;52.150;4.466;2022-08-18T05:31:26;6.30;;;4.70;;
66272;SDS011;58450;52.150;4.466;2022-08-18T05:33:55;7.25;;;4.93;;
66272;SDS011;58450;52.150;4.466;2022-08-18T05:36:26;5.45;;;4.72;;
66272;SDS011;58450;52.150;4.466;2022-08-18T05:39:20;6.38;;;4.65;;
66272;SDS011;58450;52.150;4.466;2022-08-18T05:41:53;5.50;;;4.25;;
66272;SDS011;58450;52.150;4.466;2022-08-18T05:44:32;6.22;;;4.20;;
66272;SDS011;58450;52.150;4.466;2022-08-18T05:47:09;6.80;;;4.43;;
66272;SDS011;58450;52.150;4.466;2022-08-18T05:49:41;5.70;;;4.60;;
66272;SDS011;58450;52.150;4.466;2022-08-18T05:52:14;6.65;;;4.63;;
66272;SDS011;58450;52.150;4.466;2022-08-18T05:54:52;6.35;;;4.68;;
66272;SDS011;58450;52.150;4.466;2022-08-18T05:57:46;7.03;;;4.80;;
66272;SDS011;58450;52.150;4.466;2022-08-18T06:00:18;6.20;;;5.05;;
66272;SDS011;58450;52.150;4.466;2022-08-18T06:02:50;6.68;;;4.60;;
66272;SDS011;58450;52.150;4.466;2022-08-18T06:05:26;6.65;;;5.25;;
66272;SDS011;58450;52.150;4.466;2022-08-18T06:07:59;6.63;;;5.10;;
66272;SDS011;58450;52.150;4.466;2022-08-18T06:10:31;6.13;;;4.63;;
66272;SDS011;58450;52.150;4.466;2022-08-18T06:13:01;5.97;;;4.50;;
66272;SDS011;58450;52.150;4.466;2022-08-18T06:18:24;7.22;;;4.57;;
66272;SDS011;58450;52.150;4.466;2022-08-18T06:24:05;5.60;;;4.00;;
66272;SDS011;58450;52.150;4.466;2022-08-18T06:26:47;4.35;;;3.30;;
66272;SDS011;58450;52.150;4.466;2022-08-18T06:29:31;5.47;;;3.40;;
66272;SDS011;58450;52.150;4.466;2022-08-18T06:32:19;3.90;;;2.60;;
66272;SDS011;58450;52.150;4.466;2022-08-18T06:35:03;3.25;;;2.30;;
66272;SDS011;58450;52.150;4.466;2022-08-18T06:37:47;3.03;;;2.37;;
66272;SDS011;58450;52.150;4.466;2022-08-18T06:40:47;4.25;;;2.30;;
66272;SDS011;58450;52.150;4.466;2022-08-18T06:43:15;3.38;;;1.83;;
66272;SDS011;58450;52.150;4.466;2022-08-18T06:45:45;3.42;;;2.33;;
66272;SDS011;58450;52.150;4.466;2022-08-18T06:48:19;3.33;;;1.70;;
66272;SDS011;58450;52.150;4.466;2022-08-18T06:50:59;3.38;;;1.92;;
66272;SDS011;58450;52.150;4.466;2022-08-18T06:53:48;1.90;;;1.60;;
66272;SDS011;58450;52.150;4.466;2022-08-18T06:56:24;2.30;;;1.57;;
66272;SDS011;58450;52.150;4.466;2022-08-18T06:59:17;2.05;;;1.63;;
66272;SDS011;58450;52.150;4.466;2022-08-18T07:01:52;3.63;;;1.50;;
66272;SDS011;58450;52.150;4.466;2022-08-18T07:04:30;3.03;;;1.65;;
66272;SDS011;58450;52.150;4.466;2022-08-18T07:07:15;2.30;;;1.60;;
66272;SDS011;58450;52.150;4.466;2022-08-18T07:09:55;1.85;;;1.45;;
66272;SDS011;58450;52.150;4.466;2022-08-18T07:12:24;1.88;;;1.45;;
66272;SDS011;58450;52.150;4.466;2022-08-18T07:14:55;2.42;;;1.60;;
66272;SDS011;58450;52.150;4.466;2022-08-18T07:17:27;2.67;;;1.70;;
66272;SDS011;58450;52.150;4.466;2022-08-18T07:20:00;2.40;;;1.52;;
66272;SDS011;58450;52.150;4.466;2022-08-18T07:25:24;2.03;;;1.60;;
66272;SDS011;58450;52.150;4.466;2022-08-18T07:27:58;2.78;;;1.58;;
66272;SDS011;58450;52.150;4.466;2022-08-18T07:30:30;2.55;;;1.60;;
66272;SDS011;58450;52.150;4.466;2022-08-18T07:33:08;2.85;;;1.42;;
66272;SDS011;58450;52.150;4.466;2022-08-18T07:35:46;1.73;;;1.27;;
66272;SDS011;58450;52.150;4.466;2022-08-18T07:38:23;1.92;;;1.15;;
66272;SDS011;58450;52.150;4.466;2022-08-18T07:40:58;1.85;;;1.20;;
66272;SDS011;58450;52.150;4.466;2022-08-18T07:43:35;1.02;;;0.90;;
66272;SDS011;58450;52.150;4.466;2022-08-18T07:46:11;2.08;;;0.88;;
66272;SDS011;58450;52.150;4.466;2022-08-18T07:48:46;1.67;;;0.95;;
66272;SDS011;58450;52.150;4.466;2022-08-18T07:51:14;1.48;;;0.77;;
66272;SDS011;58450;52.150;4.466;2022-08-18T07:53:51;1.45;;;0.82;;
66272;SDS011;58450;52.150;4.466;2022-08-18T07:56:31;1.50;;;0.70;;
66272;SDS011;58450;52.150;4.466;2022-08-18T07:59:09;2.00;;;0.80;;
66272;SDS011;58450;52.150;4.466;2022-08-18T08:01:47;1.33;;;0.65;;
66272;SDS011;58450;52.150;4.466;2022-08-18T08:04:29;0.60;;;0.60;;
66272;SDS011;58450;52.150;4.466;2022-08-18T08:07:08;1.77;;;0.70;;
66272;SDS011;58450;52.150;4.466;2022-08-18T08:09:42;0.77;;;0.70;;
66272;SDS011;58450;52.150;4.466;2022-08-18T08:12:26;2.38;;;0.80;;
66272;SDS011;58450;52.150;4.466;2022-08-18T08:15:05;1.52;;;0.80;;
66272;SDS011;58450;52.150;4.466;2022-08-18T08:17:48;1.88;;;0.85;;
66272;SDS011;58450;52.150;4.466;2022-08-18T08:20:26;0.77;;;0.77;;
66272;SDS011;58450;52.150;4.466;2022-08-18T08:23:06;1.83;;;0.90;;
66272;SDS011;58450;52.150;4.466;2022-08-18T08:25:49;1.47;;;0.70;;
66272;SDS011;58450;52.150;4.466;2022-08-18T08:28:39;1.85;;;1.00;;
66272;SDS011;58450;52.150;4.466;2022-08-18T08:31:21;0.77;;;0.73;;
66272;SDS011;58450;52.150;4.466;2022-08-18T08:34:06;1.40;;;1.08;;
66272;SDS011;58450;52.150;4.466;2022-08-18T08:36:44;3.03;;;1.17;;
66272;SDS011;58450;52.150;4.466;2022-08-18T08:39:17;2.17;;;1.17;;
66272;SDS011;58450;52.150;4.466;2022-08-18T08:41:51;2.17;;;1.17;;
66272;SDS011;58450;52.150;4.466;2022-08-18T08:44:26;1.67;;;0.93;;
66272;SDS011;58450;52.150;4.466;2022-08-18T08:47:06;2.38;;;1.13;;
66272;SDS011;58450;52.150;4.466;2022-08-18T08:49:41;1.42;;;1.00;;
66272;SDS011;58450;52.150;4.466;2022-08-18T08:52:20;1.75;;;0.93;;
66272;SDS011;58450;52.150;4.466;2022-08-18T08:54:53;1.98;;;0.93;;
66272;SDS011;58450;52.150;4.466;2022-08-18T08:57:30;2.75;;;0.90;;
66272;SDS011;58450;52.150;4.466;2022-08-18T09:00:08;1.65;;;1.05;;
66272;SDS011;58450;52.150;4.466;2022-08-18T09:02:45;1.08;;;0.77;;
66272;SDS011;58450;52.150;4.466;2022-08-18T09:05:40;0.77;;;0.75;;
66272;SDS011;58450;52.150;4.466;2022-08-18T09:08:25;1.40;;;0.73;;
66272;SDS011;58450;52.150;4.466;2022-08-18T09:11:21;1.48;;;0.95;;
66272;SDS011;58450;52.150;4.466;2022-08-18T09:14:15;2.35;;;0.90;;
66272;SDS011;58450;52.150;4.466;2022-08-18T09:17:15;1.77;;;0.90;;
66272;SDS011;58450;52.150;4.466;2022-08-18T09:20:14;1.83;;;0.82;;
66272;SDS011;58450;52.150;4.466;2022-08-18T09:23:03;2.03;;;0.90;;
66272;SDS011;58450;52.150;4.466;2022-08-18T09:25:45;1.35;;;1.00;;
66272;SDS011;58450;52.150;4.466;2022-08-18T09:28:17;1.17;;;0.68;;
66272;SDS011;58450;52.150;4.466;2022-08-18T09:30:52;2.40;;;0.82;;
66272;SDS011;58450;52.150;4.466;2022-08-18T09:33:50;2.90;;;0.88;;
66272;SDS011;58450;52.150;4.466;2022-08-18T09:36:42;1.55;;;0.80;;
66272;SDS011;58450;52.150;4.466;2022-08-18T09:39:30;1.13;;;0.70;;
66272;SDS011;58450;52.150;4.466;2022-08-18T09:42:27;3.05;;;0.93;;
66272;SDS011;58450;52.150;4.466;2022-08-18T09:45:07;3.05;;;0.93;;
66272;SDS011;58450;52.150;4.466;2022-08-18T09:47:57;2.10;;;1.00;;
66272;SDS011;58450;52.150;4.466;2022-08-18T09:50:35;1.40;;;0.90;;
66272;SDS011;58450;52.150;4.466;2022-08-18T09:53:33;2.22;;;0.95;;
66272;SDS011;58450;52.150;4.466;2022-08-18T10:05:56;3.15;;;1.10;;
66272;SDS011;58450;52.150;4.466;2022-08-18T10:11:48;3.20;;;0.90;;
66272;SDS011;58450;52.150;4.466;2022-08-18T10:14:54;2.95;;;1.10;;
66272;SDS011;58450;52.150;4.466;2022-08-18T10:17:45;3.38;;;1.10;;
66272;SDS011;58450;52.150;4.466;2022-08-18T10:20:34;3.45;;;1.23;;
66272;SDS011;58450;52.150;4.466;2022-08-18T10:29:54;2.75;;;0.88;;
66272;SDS011;58450;52.150;4.466;2022-08-18T10:38:42;2.55;;;1.00;;
66272;SDS011;58450;52.150;4.466;2022-08-18T10:41:19;2.75;;;1.00;;
66272;SDS011;58450;52.150;4.466;2022-08-18T10:43:53;2.38;;;0.90;;
66272;SDS011;58450;52.150;4.466;2022-08-18T10:46:23;2.50;;;0.95;;
66272;SDS011;58450;52.150;4.466;2022-08-18T10:49:03;2.05;;;0.90;;
66272;SDS011;58450;52.150;4.466;2022-08-18T10:55:29;2.03;;;0.85;;
66272;SDS011;58450;52.150;4.466;2022-08-18T10:58:29;2.38;;;1.08;;
66272;SDS011;58450;52.150;4.466;2022-08-18T11:01:14;1.73;;;0.90;;
66272;SDS011;58450;52.150;4.466;2022-08-18T11:04:03;1.63;;;1.17;;
66272;SDS011;58450;52.150;4.466;2022-08-18T11:06:38;3.67;;;1.27;;
66272;SDS011;58450;52.150;4.466;2022-08-18T11:09:09;2.85;;;1.20;;
66272;SDS011;58450;52.150;4.466;2022-08-18T11:11:38;1.23;;;0.90;;
66272;SDS011;58450;52.150;4.466;2022-08-18T11:14:12;2.63;;;0.90;;
66272;SDS011;58450;52.150;4.466;2022-08-18T11:16:58;1.88;;;1.00;;
66272;SDS011;58450;52.150;4.466;2022-08-18T11:19:36;3.17;;;1.30;;
66272;SDS011;58450;52.150;4.466;2022-08-18T11:22:19;2.00;;;1.23;;
66272;SDS011;58450;52.150;4.466;2022-08-18T11:24:48;2.92;;;1.30;;
66272;SDS011;58450;52.150;4.466;2022-08-18T11:27:18;3.05;;;1.30;;
66272;SDS011;58450;52.150;4.466;2022-08-18T11:29:50;1.77;;;1.05;;
66272;SDS011;58450;52.150;4.466;2022-08-18T11:32:19;1.85;;;0.90;;
66272;SDS011;58450;52.150;4.466;2022-08-18T11:34:58;1.63;;;1.10;;
66272;SDS011;58450;52.150;4.466;2022-08-18T11:37:33;2.00;;;0.95;;
66272;SDS011;58450;52.150;4.466;2022-08-18T11:40:10;1.50;;;1.00;;
66272;SDS011;58450;52.150;4.466;2022-08-18T11:42:53;2.55;;;1.20;;
66272;SDS011;58450;52.150;4.466;2022-08-18T11:45:28;2.30;;;1.10;;
66272;SDS011;58450;52.150;4.466;2022-08-18T11:48:10;2.28;;;0.90;;
66272;SDS011;58450;52.150;4.466;2022-08-18T11:50:48;2.83;;;1.17;;
66272;SDS011;58450;52.150;4.466;2022-08-18T11:56:15;2.22;;;1.10;;
66272;SDS011;58450;52.150;4.466;2022-08-18T11:58:52;1.50;;;0.98;;
66272;SDS011;58450;52.150;4.466;2022-08-18T12:01:28;1.88;;;1.00;;
66272;SDS011;58450;52.150;4.466;2022-08-18T12:04:09;3.45;;;1.33;;
66272;SDS011;58450;52.150;4.466;2022-08-18T12:06:55;2.22;;;1.10;;
66272;SDS011;58450;52.150;4.466;2022-08-18T12:09:33;1.60;;;1.35;;
66272;SDS011;58450;52.150;4.466;2022-08-18T12:12:06;2.75;;;1.15;;
66272;SDS011;58450;52.150;4.466;2022-08-18T12:14:51;3.20;;;1.33;;
66272;SDS011;58450;52.150;4.466;2022-08-18T12:17:23;2.83;;;1.10;;
66272;SDS011;58450;52.150;4.466;2022-08-18T12:19:51;3.60;;;1.40;;
66272;SDS011;58450;52.150;4.466;2022-08-18T12:22:22;2.40;;;1.10;;
66272;SDS011;58450;52.150;4.466;2022-08-18T12:24:52;2.10;;;1.10;;
66272;SDS011;58450;52.150;4.466;2022-08-18T12:27:21;1.45;;;1.00;;
66272;SDS011;58450;52.150;4.466;2022-08-18T12:29:52;3.17;;;1.40;;
66272;SDS011;58450;52.150;4.466;2022-08-18T12:32:24;1.83;;;1.15;;
66272;SDS011;58450;52.150;4.466;2022-08-18T12:34:54;2.28;;;1.30;;
66272;SDS011;58450;52.150;4.466;2022-08-18T12:37:24;2.13;;;1.30;;
66272;SDS011;58450;52.150;4.466;2022-08-18T12:39:55;2.08;;;1.20;;
66272;SDS011;58450;52.150;4.466;2022-08-18T12:42:24;2.78;;;1.30;;
66272;SDS011;58450;52.150;4.466;2022-08-18T12:44:52;3.50;;;1.20;;
66272;SDS011;58450;52.150;4.466;2022-08-18T12:47:21;2.63;;;1.30;;
66272;SDS011;58450;52.150;4.466;2022-08-18T12:49:51;2.58;;;1.10;;
66272;SDS011;58450;52.150;4.466;2022-08-18T12:52:19;1.85;;;1.00;;
66272;SDS011;58450;52.150;4.466;2022-08-18T12:54:49;1.70;;;0.95;;
66272;SDS011;58450;52.150;4.466;2022-08-18T12:57:18;2.30;;;1.00;;
66272;SDS011;58450;52.150;4.466;2022-08-18T12:59:50;2.45;;;1.40;;
66272;SDS011;58450;52.150;4.466;2022-08-18T13:02:19;2.53;;;1.10;;
66272;SDS011;58450;52.150;4.466;2022-08-18T13:04:47;2.85;;;1.20;;
66272;SDS011;58450;52.150;4.466;2022-08-18T13:07:14;3.03;;;1.33;;
66272;SDS011;58450;52.150;4.466;2022-08-18T13:09:41;2.42;;;1.30;;
66272;SDS011;58450;52.150;4.466;2022-08-18T13:12:11;3.50;;;1.50;;
66272;SDS011;58450;52.150;4.466;2022-08-18T13:14:40;4.22;;;1.70;;
66272;SDS011;58450;52.150;4.466;2022-08-18T13:17:08;3.63;;;1.73;;
66272;SDS011;58450;52.150;4.466;2022-08-18T13:19:35;3.20;;;1.60;;
66272;SDS011;58450;52.150;4.466;2022-08-18T13:22:03;1.70;;;1.33;;
66272;SDS011;58450;52.150;4.466;2022-08-18T13:24:31;3.03;;;1.50;;
66272;SDS011;58450;52.150;4.466;2022-08-18T13:26:58;2.35;;;1.40;;
66272;SDS011;58450;52.150;4.466;2022-08-18T13:29:27;2.92;;;1.40;;
66272;SDS011;58450;52.150;4.466;2022-08-18T13:31:55;3.20;;;1.35;;
66272;SDS011;58450;52.150;4.466;2022-08-18T13:34:24;2.90;;;1.30;;
66272;SDS011;58450;52.150;4.466;2022-08-18T13:36:53;2.88;;;1.33;;
66272;SDS011;58450;52.150;4.466;2022-08-18T13:39:21;3.53;;;1.40;;
66272;SDS011;58450;52.150;4.466;2022-08-18T13:41:51;3.15;;;1.48;;
66272;SDS011;58450;52.150;4.466;2022-08-18T13:44:20;4.15;;;1.52;;
66272;SDS011;58450;52.150;4.466;2022-08-18T13:46:50;4.30;;;1.55;;
66272;SDS011;58450;52.150;4.466;2022-08-18T13:49:21;2.88;;;1.48;;
66272;SDS011;58450;52.150;4.466;2022-08-18T13:51:52;2.75;;;1.70;;
66272;SDS011;58450;52.150;4.466;2022-08-18T13:54:24;3.67;;;1.55;;
66272;SDS011;58450;52.150;4.466;2022-08-18T13:56:54;3.10;;;1.50;;
66272;SDS011;58450;52.150;4.466;2022-08-18T13:59:22;3.97;;;1.58;;
66272;SDS011;58450;52.150;4.466;2022-08-18T14:01:58;3.58;;;1.52;;
66272;SDS011;58450;52.150;4.466;2022-08-18T14:04:27;3.38;;;1.65;;
66272;SDS011;58450;52.150;4.466;2022-08-18T14:06:55;3.13;;;1.58;;
66272;SDS011;58450;52.150;4.466;2022-08-18T14:09:22;2.97;;;1.55;;
66272;SDS011;58450;52.150;4.466;2022-08-18T14:11:50;3.75;;;1.60;;
66272;SDS011;58450;52.150;4.466;2022-08-18T14:14:17;4.63;;;1.77;;
66272;SDS011;58450;52.150;4.466;2022-08-18T14:16:45;2.60;;;1.60;;
66272;SDS011;58450;52.150;4.466;2022-08-18T14:19:14;3.72;;;1.60;;
66272;SDS011;58450;52.150;4.466;2022-08-18T14:21:59;4.53;;;1.90;;
66272;SDS011;58450;52.150;4.466;2022-08-18T14:24:44;3.90;;;2.00;;
66272;SDS011;58450;52.150;4.466;2022-08-18T14:27:33;5.28;;;2.00;;
66272;SDS011;58450;52.150;4.466;2022-08-18T14:30:04;3.97;;;1.90;;
66272;SDS011;58450;52.150;4.466;2022-08-18T14:32:35;6.10;;;2.20;;
66272;SDS011;58450;52.150;4.466;2022-08-18T14:35:06;3.78;;;1.60;;
66272;SDS011;58450;52.150;4.466;2022-08-18T14:37:36;1.93;;;1.30;;
66272;SDS011;58450;52.150;4.466;2022-08-18T14:40:04;3.25;;;1.50;;
66272;SDS011;58450;52.150;4.466;2022-08-18T14:42:33;2.28;;;1.25;;
66272;SDS011;58450;52.150;4.466;2022-08-18T14:45:03;2.35;;;1.35;;
66272;SDS011;58450;52.150;4.466;2022-08-18T14:47:32;2.45;;;1.20;;
66272;SDS011;58450;52.150;4.466;2022-08-18T14:49:59;3.33;;;1.50;;
66272;SDS011;58450;52.150;4.466;2022-08-18T14:52:29;2.38;;;1.20;;
66272;SDS011;58450;52.150;4.466;2022-08-18T14:54:56;3.92;;;1.05;;
66272;SDS011;58450;52.150;4.466;2022-08-18T14:57:24;3.28;;;1.35;;
66272;SDS011;58450;52.150;4.466;2022-08-18T14:59:51;2.90;;;1.40;;
66272;SDS011;58450;52.150;4.466;2022-08-18T15:02:19;3.53;;;1.73;;
66272;SDS011;58450;52.150;4.466;2022-08-18T15:04:46;2.63;;;1.30;;
66272;SDS011;58450;52.150;4.466;2022-08-18T15:07:14;2.60;;;1.42;;
66272;SDS011;58450;52.150;4.466;2022-08-18T15:09:42;3.42;;;1.45;;
66272;SDS011;58450;52.150;4.466;2022-08-18T15:12:10;2.60;;;1.15;;
66272;SDS011;58450;52.150;4.466;2022-08-18T15:14:40;2.30;;;1.38;;
66272;SDS011;58450;52.150;4.466;2022-08-18T15:17:07;3.05;;;1.30;;
66272;SDS011;58450;52.150;4.466;2022-08-18T15:19:37;4.50;;;1.48;;
66272;SDS011;58450;52.150;4.466;2022-08-18T15:22:04;3.88;;;1.40;;
66272;SDS011;58450;52.150;4.466;2022-08-18T15:24:50;4.47;;;1.48;;
66272;SDS011;58450;52.150;4.466;2022-08-18T15:27:36;4.10;;;1.80;;
66272;SDS011;58450;52.150;4.466;2022-08-18T15:30:05;1.98;;;1.10;;
66272;SDS011;58450;52.150;4.466;2022-08-18T15:32:36;1.98;;;1.10;;
66272;SDS011;58450;52.150;4.466;2022-08-18T15:35:04;2.17;;;1.20;;
66272;SDS011;58450;52.150;4.466;2022-08-18T15:37:33;2.85;;;1.25;;
66272;SDS011;58450;52.150;4.466;2022-08-18T15:40:10;3.35;;;1.10;;
66272;SDS011;58450;52.150;4.466;2022-08-18T15:42:43;3.28;;;1.40;;
66272;SDS011;58450;52.150;4.466;2022-08-18T15:45:16;3.78;;;1.40;;
66272;SDS011;58450;52.150;4.466;2022-08-18T15:47:45;3.10;;;1.35;;
66272;SDS011;58450;52.150;4.466;2022-08-18T15:50:13;3.17;;;1.10;;
66272;SDS011;58450;52.150;4.466;2022-08-18T15:52:45;2.35;;;1.20;;
66272;SDS011;58450;52.150;4.466;2022-08-18T15:55:16;3.35;;;1.20;;
66272;SDS011;58450;52.150;4.466;2022-08-18T15:57:45;3.05;;;1.20;;
66272;SDS011;58450;52.150;4.466;2022-08-18T16:00:14;2.72;;;1.20;;
66272;SDS011;58450;52.150;4.466;2022-08-18T16:02:47;3.13;;;1.20;;
66272;SDS011;58450;52.150;4.466;2022-08-18T16:05:16;1.90;;;1.10;;
66272;SDS011;58450;52.150;4.466;2022-08-18T16:07:48;3.47;;;1.25;;
66272;SDS011;58450;52.150;4.466;2022-08-18T16:10:23;2.55;;;1.25;;
66272;SDS011;58450;52.150;4.466;2022-08-18T16:12:54;2.28;;;1.25;;